Time;durP1;ratioP1;P1;durP2;ratioP2;P2;SDS_P1;SDS_P2;PMS_P1;PMS_P2;Temp;Humidity;BMP_temperature;BMP_pressure;BME280_temperature;BME280_humidity;BME280_pressure;Samples;Min_cycle;Max_cycle;Signal;HPM_P1;HPM_P2
2023/04/08 00:01:08;;;;;;;16.70;12.13;;;5.60;76.40;;;;;;5079515;28;20428;-65
2023/04/08 00:03:33;;;;;;;15.68;11.80;;;5.70;75.70;;;;;;5091554;28;20036;-65
2023/04/08 00:06:01;;;;;;;18.35;13.38;;;5.60;75.70;;;;;;5081769;28;20028;-65
2023/04/08 00:08:27;;;;;;;22.35;15.07;;;5.60;76.80;;;;;;5083980;28;20036;-65
2023/04/08 00:10:52;;;;;;;17.50;12.30;;;5.60;76.30;;;;;;5075593;28;20070;-65
2023/04/08 00:13:18;;;;;;;17.02;12.52;;;5.60;74.70;;;;;;5076501;28;20109;-65
2023/04/08 00:15:43;;;;;;;16.95;12.18;;;5.70;75.20;;;;;;5074408;28;20298;-64
2023/04/08 00:18:09;;;;;;;17.98;13.27;;;5.70;75.90;;;;;;5084401;28;20024;-65
2023/04/08 00:20:35;;;;;;;18.95;13.10;;;5.70;75.60;;;;;;5078056;28;20484;-65
2023/04/08 00:23:00;;;;;;;17.67;12.95;;;5.70;75.90;;;;;;5085828;28;20107;-66
2023/04/08 00:25:26;;;;;;;19.60;14.32;;;5.70;76.10;;;;;;5087124;28;20030;-66
2023/04/08 00:27:51;;;;;;;17.10;12.50;;;5.70;75.40;;;;;;5087010;28;20082;-66
2023/04/08 00:30:17;;;;;;;20.95;13.65;;;5.70;75.80;;;;;;5080482;28;20441;-66
2023/04/08 00:32:43;;;;;;;20.13;14.93;;;5.70;75.60;;;;;;5082867;28;20321;-65
2023/04/08 00:35:09;;;;;;;20.95;14.73;;;5.70;75.30;;;;;;5079902;28;20302;-66
2023/04/08 00:37:35;;;;;;;16.98;12.90;;;5.70;74.80;;;;;;5082995;28;20336;-65
2023/04/08 00:40:00;;;;;;;18.73;12.75;;;5.70;74.10;;;;;;5074398;28;20107;-65
2023/04/08 00:42:26;;;;;;;18.70;13.82;;;5.70;73.40;;;;;;5089597;28;20028;-67
2023/04/08 00:44:51;;;;;;;20.63;15.02;;;5.70;74.30;;;;;;5086075;28;20052;-67
2023/04/08 00:47:17;;;;;;;19.80;13.88;;;5.70;73.50;;;;;;5085781;28;20127;-67
2023/04/08 00:49:43;;;;;;;20.65;14.70;;;5.80;73.50;;;;;;5087511;28;20044;-66
2023/04/08 00:52:12;;;;;;;19.90;13.82;;;5.80;73.60;;;;;;5083247;28;20039;-67
2023/04/08 00:54:38;;;;;;;18.60;13.65;;;5.80;73.80;;;;;;5083575;28;20050;-67
2023/04/08 00:57:05;;;;;;;18.98;13.95;;;5.80;74.80;;;;;;5086364;28;20278;-66
2023/04/08 00:59:31;;;;;;;22.45;16.20;;;5.80;74.90;;;;;;5094015;28;20081;-66
2023/04/08 01:02:07;;;;;;;20.42;15.57;;;5.80;75.60;;;;;;5086101;28;20020;-66
2023/04/08 01:04:39;;;;;;;24.40;16.13;;;5.80;74.50;;;;;;5088560;28;20375;-66
2023/04/08 01:07:10;;;;;;;26.33;17.98;;;5.80;74.90;;;;;;5087273;28;20016;-66
2023/04/08 01:09:39;;;;;;;20.25;14.90;;;5.80;74.60;;;;;;5077772;28;20021;-66
2023/04/08 01:12:08;;;;;;;25.25;15.73;;;5.70;72.90;;;;;;5080108;28;20032;-65
2023/04/08 01:14:42;;;;;;;24.95;16.80;;;5.80;73.20;;;;;;5080414;28;20042;-66
2023/04/08 01:17:09;;;;;;;24.10;15.85;;;5.80;74.20;;;;;;5086770;28;20020;-66
2023/04/08 01:19:43;;;;;;;25.00;17.08;;;5.80;74.10;;;;;;5081278;28;20375;-65
2023/04/08 01:22:24;;;;;;;24.75;16.60;;;5.80;74.00;;;;;;5086108;28;20024;-66
2023/04/08 01:24:58;;;;;;;30.20;20.73;;;5.70;74.80;;;;;;5086017;28;20025;-64
2023/04/08 01:27:26;;;;;;;32.17;21.42;;;5.70;74.80;;;;;;5088427;28;20085;-65
2023/04/08 01:29:52;;;;;;;33.13;20.60;;;5.70;73.80;;;;;;5079352;28;20391;-64
2023/04/08 01:32:18;;;;;;;32.30;20.63;;;5.70;73.90;;;;;;5087255;28;20033;-64
2023/04/08 01:34:44;;;;;;;29.95;20.20;;;5.70;73.60;;;;;;5083484;28;20033;-65
2023/04/08 01:37:11;;;;;;;36.92;23.33;;;5.70;72.80;;;;;;5086867;28;20086;-66
2023/04/08 01:39:38;;;;;;;30.27;20.83;;;5.70;72.60;;;;;;5085061;28;20055;-65
2023/04/08 01:42:04;;;;;;;28.95;19.73;;;5.70;72.30;;;;;;5082818;28;20031;-65
2023/04/08 01:44:32;;;;;;;28.85;19.45;;;5.70;71.60;;;;;;5078172;28;20021;-65
2023/04/08 01:46:58;;;;;;;31.05;20.58;;;5.70;71.50;;;;;;5090789;28;20036;-65
2023/04/08 01:49:24;;;;;;;36.13;24.15;;;5.70;71.60;;;;;;5083581;28;20103;-64
2023/04/08 01:51:52;;;;;;;36.58;23.23;;;5.70;71.90;;;;;;5078680;28;20317;-65
2023/04/08 01:54:18;;;;;;;37.55;24.50;;;5.70;71.30;;;;;;5085565;28;20054;-65
2023/04/08 01:56:44;;;;;;;36.97;23.65;;;5.70;70.80;;;;;;5079213;28;20067;-65
2023/04/08 01:59:14;;;;;;;41.75;25.63;;;5.80;70.40;;;;;;5090058;28;20508;-64
2023/04/08 02:01:41;;;;;;;40.47;25.40;;;5.80;70.20;;;;;;5080648;28;20043;-66
2023/04/08 02:04:07;;;;;;;43.33;25.63;;;5.90;70.40;;;;;;5082700;28;20089;-65
2023/04/08 02:06:33;;;;;;;33.60;23.27;;;5.90;70.80;;;;;;5077830;28;20016;-65
2023/04/08 02:09:00;;;;;;;39.80;24.73;;;5.90;69.70;;;;;;5088360;28;20417;-65
2023/04/08 02:11:27;;;;;;;34.45;23.35;;;5.90;70.70;;;;;;5083564;28;20113;-66
2023/04/08 02:13:52;;;;;;;45.10;28.20;;;5.90;70.40;;;;;;5080320;28;20040;-65
2023/04/08 02:16:32;;;;;;;41.67;26.02;;;5.90;71.30;;;;;;5077311;28;20037;-65
2023/04/08 02:19:06;;;;;;;38.15;25.20;;;5.90;70.70;;;;;;5086937;28;20032;-65
2023/04/08 02:21:47;;;;;;;39.85;25.20;;;5.80;70.90;;;;;;5076794;28;20112;-65
2023/04/08 02:24:15;;;;;;;50.47;28.42;;;5.80;71.50;;;;;;5077510;28;20070;-65
2023/04/08 02:26:42;;;;;;;40.55;25.73;;;5.80;71.00;;;;;;5076390;28;20112;-65
2023/04/08 02:29:11;;;;;;;44.90;27.85;;;5.80;70.70;;;;;;5081819;28;20020;-65
2023/04/08 02:31:40;;;;;;;40.15;25.92;;;5.80;71.40;;;;;;5079448;28;20028;-66
2023/04/08 02:34:12;;;;;;;39.35;25.13;;;5.80;70.20;;;;;;5079139;28;20052;-66
2023/04/08 02:36:39;;;;;;;38.97;24.25;;;5.80;69.50;;;;;;5088171;28;20091;-66
2023/04/08 02:39:05;;;;;;;43.20;28.20;;;5.80;69.10;;;;;;5085593;28;20035;-65
2023/04/08 02:41:31;;;;;;;38.58;24.52;;;5.80;70.00;;;;;;5090492;28;21794;-66
2023/04/08 02:43:56;;;;;;;40.55;25.20;;;5.80;69.40;;;;;;5081845;28;20025;-66
2023/04/08 02:46:22;;;;;;;33.80;21.75;;;5.80;69.50;;;;;;5077599;28;20032;-64
2023/04/08 02:48:48;;;;;;;43.28;26.92;;;5.80;69.70;;;;;;5092433;28;20318;-66
2023/04/08 02:51:13;;;;;;;34.50;21.65;;;5.80;69.20;;;;;;5083518;28;20021;-66
2023/04/08 02:53:39;;;;;;;45.75;27.30;;;5.80;68.80;;;;;;5073415;28;20028;-66
2023/04/08 02:56:05;;;;;;;38.55;24.95;;;5.80;70.20;;;;;;5075712;28;20032;-65
2023/04/08 02:58:30;;;;;;;52.63;31.05;;;5.80;70.30;;;;;;5090442;28;20152;-66
2023/04/08 03:00:56;;;;;;;43.03;26.65;;;5.80;70.90;;;;;;5080359;28;20025;-66
2023/04/08 03:03:28;;;;;;;51.15;30.13;;;5.80;70.00;;;;;;5085712;28;20044;-66
2023/04/08 03:05:54;;;;;;;38.38;25.17;;;5.70;70.00;;;;;;5085423;28;20103;-66
2023/04/08 03:08:20;;;;;;;44.45;27.92;;;5.70;69.50;;;;;;5088769;28;20017;-66
2023/04/08 03:10:46;;;;;;;46.22;28.30;;;5.70;68.70;;;;;;5086877;28;20020;-66
2023/04/08 03:13:12;;;;;;;42.03;27.33;;;5.70;69.10;;;;;;5083149;28;20119;-66
2023/04/08 03:15:37;;;;;;;49.08;29.27;;;5.70;68.60;;;;;;5084387;28;20101;-66
2023/04/08 03:18:03;;;;;;;51.55;31.10;;;5.70;68.80;;;;;;5075018;28;20032;-66
2023/04/08 03:20:31;;;;;;;51.55;30.67;;;5.70;68.90;;;;;;5077399;28;20029;-65
2023/04/08 03:22:57;;;;;;;44.70;28.23;;;5.70;69.10;;;;;;5089121;28;20366;-66
2023/04/08 03:25:22;;;;;;;39.08;27.30;;;5.70;69.30;;;;;;5081686;28;20021;-65
2023/04/08 03:27:48;;;;;;;43.03;27.60;;;5.70;69.80;;;;;;5083277;28;20056;-65
2023/04/08 03:30:13;;;;;;;40.10;26.08;;;5.70;69.20;;;;;;5083523;28;20024;-65
2023/04/08 03:32:39;;;;;;;48.08;27.63;;;5.70;69.10;;;;;;5082468;28;20150;-65
2023/04/08 03:35:05;;;;;;;54.40;30.95;;;5.70;69.30;;;;;;5077021;28;20031;-65
2023/04/08 03:37:31;;;;;;;49.88;29.92;;;5.70;69.50;;;;;;5087234;28;20080;-67
2023/04/08 03:39:56;;;;;;;45.53;29.55;;;5.70;69.80;;;;;;5079384;28;20032;-67
2023/04/08 03:42:22;;;;;;;48.92;30.63;;;5.70;69.70;;;;;;5091795;28;20031;-67
2023/04/08 03:44:48;;;;;;;51.00;31.15;;;5.60;70.20;;;;;;5086149;28;20028;-66
2023/04/08 03:47:13;;;;;;;43.95;28.70;;;5.60;69.90;;;;;;5087079;28;20028;-66
2023/04/08 03:49:39;;;;;;;53.97;31.92;;;5.60;69.60;;;;;;5074733;28;20038;-66
2023/04/08 03:52:07;;;;;;;44.17;28.70;;;5.70;70.00;;;;;;5084700;28;20091;-66
2023/04/08 03:54:35;;;;;;;43.20;28.15;;;5.60;69.70;;;;;;5080448;28;20029;-65
2023/04/08 03:57:01;;;;;;;38.90;23.58;;;5.60;69.70;;;;;;5077984;28;20031;-67
2023/04/08 03:59:26;;;;;;;49.45;28.95;;;5.60;70.30;;;;;;5082639;28;20029;-65
2023/04/08 04:01:52;;;;;;;40.00;25.88;;;5.50;70.90;;;;;;5073042;28;20103;-66
2023/04/08 04:04:18;;;;;;;35.22;22.63;;;5.50;72.00;;;;;;5085469;28;20051;-66
2023/04/08 04:06:43;;;;;;;31.73;20.88;;;5.50;72.50;;;;;;5076415;28;20036;-65
2023/04/08 04:09:10;;;;;;;24.38;17.35;;;5.40;72.80;;;;;;5075501;28;20024;-65
2023/04/08 04:11:35;;;;;;;30.38;19.80;;;5.40;74.60;;;;;;5079456;28;20039;-66
2023/04/08 04:14:01;;;;;;;27.55;18.10;;;5.40;77.00;;;;;;5081539;28;20425;-65
2023/04/08 04:16:26;;;;;;;25.10;16.20;;;5.40;77.50;;;;;;5081184;28;20042;-66
2023/04/08 04:18:52;;;;;;;23.83;15.63;;;5.40;77.90;;;;;;5088622;28;20028;-65
2023/04/08 04:21:18;;;;;;;22.20;14.95;;;5.40;78.20;;;;;;5080633;28;20024;-65
2023/04/08 04:23:44;;;;;;;23.98;16.73;;;5.30;78.90;;;;;;5086998;28;20024;-65
2023/04/08 04:26:10;;;;;;;22.08;15.02;;;5.30;78.90;;;;;;5079244;28;20017;-65
2023/04/08 04:28:36;;;;;;;30.33;18.67;;;5.30;78.80;;;;;;5076466;28;20032;-66
2023/04/08 04:31:02;;;;;;;21.58;15.10;;;5.30;79.70;;;;;;5081159;28;20082;-65
2023/04/08 04:33:28;;;;;;;22.00;15.13;;;5.40;80.20;;;;;;5085336;28;20028;-66
2023/04/08 04:35:54;;;;;;;27.65;17.40;;;5.30;81.90;;;;;;5080610;28;20030;-66
2023/04/08 04:38:20;;;;;;;19.63;14.38;;;5.20;81.70;;;;;;5080868;28;20086;-66
2023/04/08 04:40:46;;;;;;;20.73;14.43;;;5.10;80.10;;;;;;5084012;28;20029;-66
2023/04/08 04:43:11;;;;;;;21.23;14.20;;;5.20;78.90;;;;;;5083487;28;20107;-64
2023/04/08 04:45:37;;;;;;;28.25;17.33;;;5.20;79.10;;;;;;5093615;28;20471;-65
2023/04/08 04:48:02;;;;;;;21.52;14.80;;;5.20;80.60;;;;;;5087008;28;20073;-65
2023/04/08 04:50:28;;;;;;;19.98;14.05;;;5.20;78.60;;;;;;5088267;28;20028;-64
2023/04/08 04:52:54;;;;;;;21.35;15.20;;;5.20;79.40;;;;;;5082816;28;20021;-65
2023/04/08 04:55:21;;;;;;;21.33;14.65;;;5.20;79.90;;;;;;5090351;28;20085;-65
2023/04/08 04:57:47;;;;;;;20.00;14.82;;;5.20;79.00;;;;;;5092257;28;20390;-65
2023/04/08 05:00:13;;;;;;;23.95;16.20;;;5.20;79.00;;;;;;5089340;28;20039;-65
2023/04/08 05:02:39;;;;;;;26.08;16.33;;;5.10;79.40;;;;;;5077841;28;20028;-65
2023/04/08 05:05:05;;;;;;;22.67;14.95;;;5.10;78.60;;;;;;5087769;28;20695;-65
2023/04/08 05:07:34;;;;;;;22.95;15.30;;;5.10;77.60;;;;;;5081024;28;20027;-66
2023/04/08 05:10:00;;;;;;;39.17;24.45;;;5.00;77.10;;;;;;5086194;28;20032;-66
2023/04/08 05:12:26;;;;;;;25.85;18.20;;;5.00;76.20;;;;;;5087077;28;20032;-65
2023/04/08 05:14:51;;;;;;;58.35;39.08;;;5.00;76.10;;;;;;5092712;28;20038;-65
2023/04/08 05:17:17;;;;;;;30.98;20.90;;;5.00;75.20;;;;;;5083795;28;20033;-65
2023/04/08 05:19:42;;;;;;;29.05;19.70;;;5.00;74.80;;;;;;5099198;28;20032;-65
2023/04/08 05:22:08;;;;;;;23.67;15.65;;;5.00;73.00;;;;;;5090250;28;20035;-66
2023/04/08 05:24:33;;;;;;;24.92;15.60;;;5.10;72.00;;;;;;5092187;28;20020;-66
2023/04/08 05:27:00;;;;;;;25.80;16.90;;;5.10;73.10;;;;;;5086860;28;20111;-64
2023/04/08 05:29:26;;;;;;;25.88;16.52;;;5.20;73.10;;;;;;5095891;28;20452;-66
2023/04/08 05:31:52;;;;;;;21.38;14.27;;;5.20;72.50;;;;;;5086338;28;20036;-65
2023/04/08 05:34:21;;;;;;;19.83;13.90;;;5.30;72.50;;;;;;5092016;28;20316;-65
2023/04/08 05:36:53;;;;;;;24.15;15.07;;;5.30;71.90;;;;;;5087738;28;20137;-66
2023/04/08 05:39:19;;;;;;;19.17;13.80;;;5.40;72.30;;;;;;5092026;28;20143;-65
2023/04/08 05:41:45;;;;;;;21.13;14.10;;;5.50;71.80;;;;;;5078294;28;20107;-66
2023/04/08 05:44:12;;;;;;;16.45;11.60;;;5.60;72.10;;;;;;5097351;28;20036;-66
2023/04/08 05:46:38;;;;;;;18.33;11.75;;;5.70;71.70;;;;;;5081293;28;20379;-65
2023/04/08 05:49:03;;;;;;;16.50;11.90;;;5.90;72.70;;;;;;5076251;28;20028;-66
2023/04/08 05:51:29;;;;;;;15.07;10.38;;;5.90;74.90;;;;;;5078255;28;20032;-66
2023/04/08 05:53:55;;;;;;;16.92;12.95;;;6.00;75.90;;;;;;5077091;28;20021;-66
2023/04/08 05:56:20;;;;;;;17.08;11.63;;;6.00;78.30;;;;;;5073153;28;20032;-66
2023/04/08 05:58:47;;;;;;;14.95;10.80;;;6.10;79.10;;;;;;5073097;28;20895;-65
2023/04/08 06:01:12;;;;;;;19.77;13.30;;;6.20;80.30;;;;;;5075636;28;20112;-66
2023/04/08 06:03:38;;;;;;;18.00;12.20;;;6.20;82.00;;;;;;5079232;28;20379;-66
2023/04/08 06:06:10;;;;;;;23.02;15.27;;;6.30;83.70;;;;;;5091977;28;20028;-66
2023/04/08 06:08:36;;;;;;;23.52;15.52;;;6.30;85.80;;;;;;5091194;28;20074;-67
2023/04/08 06:11:03;;;;;;;22.85;15.18;;;6.30;87.60;;;;;;5084440;28;20029;-66
2023/04/08 06:13:28;;;;;;;26.08;16.63;;;6.30;87.60;;;;;;5080933;28;20472;-66
2023/04/08 06:15:54;;;;;;;25.35;17.08;;;6.30;88.30;;;;;;5093598;28;20028;-66
2023/04/08 06:18:19;;;;;;;27.50;18.98;;;6.30;89.80;;;;;;5094350;28;20044;-66
2023/04/08 06:20:45;;;;;;;24.15;16.45;;;6.20;90.40;;;;;;5087572;28;20060;-65
2023/04/08 06:23:14;;;;;;;24.52;17.05;;;6.20;89.00;;;;;;5083865;28;20024;-65
2023/04/08 06:25:40;;;;;;;28.00;19.40;;;6.40;89.80;;;;;;5092822;28;20080;-65
2023/04/08 06:28:06;;;;;;;35.50;23.42;;;6.30;90.80;;;;;;5088380;28;20027;-65
2023/04/08 06:30:32;;;;;;;40.70;26.85;;;6.30;89.20;;;;;;5078006;28;20028;-66
2023/04/08 06:32:57;;;;;;;43.53;27.98;;;6.20;88.70;;;;;;5087314;28;20039;-67
2023/04/08 06:35:26;;;;;;;41.80;28.33;;;6.20;87.60;;;;;;5091521;28;20374;-66
2023/04/08 06:37:51;;;;;;;41.30;27.50;;;6.10;87.10;;;;;;5089833;28;20024;-67
2023/04/08 06:40:17;;;;;;;43.17;28.45;;;6.20;85.00;;;;;;5086120;28;20020;-67
2023/04/08 06:42:43;;;;;;;40.67;26.15;;;6.30;86.00;;;;;;5090006;28;20153;-65
2023/04/08 06:45:09;;;;;;;40.65;27.98;;;6.50;85.60;;;;;;5083799;28;20020;-66
2023/04/08 06:47:35;;;;;;;43.97;30.92;;;6.70;87.60;;;;;;5093296;28;20024;-66
2023/04/08 06:50:00;;;;;;;38.03;23.85;;;6.80;90.00;;;;;;5091996;28;20024;-66
2023/04/08 06:52:29;;;;;;;35.85;24.63;;;6.70;91.00;;;;;;5083929;28;20028;-66
2023/04/08 06:54:55;;;;;;;33.08;22.38;;;6.80;90.00;;;;;;5079040;28;20039;-66
2023/04/08 06:57:20;;;;;;;32.58;21.00;;;6.80;91.10;;;;;;5077316;28;20052;-65
2023/04/08 06:59:46;;;;;;;30.58;19.90;;;7.00;91.10;;;;;;5077024;28;20333;-66
2023/04/08 07:02:11;;;;;;;30.95;21.05;;;7.10;94.10;;;;;;5075449;28;20025;-66
2023/04/08 07:04:37;;;;;;;25.15;17.42;;;7.30;94.30;;;;;;5089396;28;20032;-66
2023/04/08 07:07:03;;;;;;;23.45;16.20;;;7.50;95.20;;;;;;5079052;28;20034;-66
2023/04/08 07:09:28;;;;;;;20.13;14.13;;;7.70;96.20;;;;;;5092127;28;20040;-66
2023/04/08 07:11:54;;;;;;;23.20;17.10;;;7.90;97.00;;;;;;5082580;28;20044;-66
2023/04/08 07:14:20;;;;;;;23.85;16.90;;;8.30;98.00;;;;;;5080615;28;20082;-66
2023/04/08 07:16:45;;;;;;;23.70;16.83;;;8.50;98.00;;;;;;5083570;28;20033;-66
2023/04/08 07:19:11;;;;;;;22.02;16.08;;;8.30;98.00;;;;;;5082219;28;20048;-66
2023/04/08 07:21:36;;;;;;;23.17;16.45;;;8.00;98.00;;;;;;5080163;28;20309;-66
2023/04/08 07:24:02;;;;;;;18.38;13.50;;;7.90;97.90;;;;;;5079753;28;20353;-66
2023/04/08 07:26:29;;;;;;;20.40;14.77;;;8.10;98.00;;;;;;5081239;28;20094;-65
2023/04/08 07:28:54;;;;;;;20.02;14.02;;;8.00;98.00;;;;;;5090176;28;20306;-66
2023/04/08 07:31:20;;;;;;;17.38;12.38;;;8.10;98.00;;;;;;5083732;28;20020;-66
2023/04/08 07:33:46;;;;;;;17.30;11.70;;;8.00;98.00;;;;;;5078934;28;20028;-66
2023/04/08 07:36:12;;;;;;;22.27;14.85;;;7.90;98.00;;;;;;5081060;28;20027;-65
2023/04/08 07:38:38;;;;;;;23.67;15.73;;;7.80;98.00;;;;;;5085495;28;20028;-66
2023/04/08 07:41:04;;;;;;;18.90;13.18;;;7.80;98.00;;;;;;5089121;28;20047;-65
2023/04/08 07:43:31;;;;;;;23.42;16.58;;;7.90;98.00;;;;;;5080170;28;20455;-66
2023/04/08 07:46:02;;;;;;;17.02;12.35;;;7.80;98.00;;;;;;5076303;28;20106;-66
2023/04/08 07:48:28;;;;;;;19.05;14.45;;;7.70;98.00;;;;;;5083498;28;20431;-76
2023/04/08 07:50:54;;;;;;;18.23;13.38;;;7.60;98.00;;;;;;5075316;28;20035;-66
2023/04/08 07:53:20;;;;;;;18.05;13.05;;;7.40;97.90;;;;;;5081055;28;20027;-66
2023/04/08 07:55:46;;;;;;;18.80;13.43;;;7.30;97.60;;;;;;5082059;28;20020;-65
2023/04/08 07:58:11;;;;;;;22.45;16.52;;;7.30;97.20;;;;;;5082552;28;20055;-66
2023/04/08 08:00:37;;;;;;;25.02;18.27;;;7.20;95.80;;;;;;5075126;28;20024;-66
2023/04/08 08:03:02;;;;;;;25.52;19.17;;;7.20;96.30;;;;;;5082310;28;20379;-66
2023/04/08 08:05:28;;;;;;;25.48;19.13;;;7.10;95.70;;;;;;5090414;28;20317;-66
2023/04/08 08:07:54;;;;;;;22.17;16.77;;;7.10;95.80;;;;;;5077423;28;20634;-66
2023/04/08 08:10:19;;;;;;;23.25;16.58;;;7.30;96.00;;;;;;5092586;28;20047;-66
2023/04/08 08:12:45;;;;;;;21.30;15.25;;;7.40;97.20;;;;;;5079819;28;20391;-66
2023/04/08 08:15:11;;;;;;;24.45;16.77;;;7.40;97.20;;;;;;5081375;28;20082;-66
2023/04/08 08:17:36;;;;;;;19.10;14.18;;;7.40;97.00;;;;;;5092612;28;20049;-66
2023/04/08 08:20:03;;;;;;;23.98;16.15;;;7.40;97.20;;;;;;5091955;28;20035;-66
2023/04/08 08:22:29;;;;;;;19.80;14.05;;;7.40;96.90;;;;;;5077386;28;20055;-65
2023/04/08 08:24:58;;;;;;;18.50;14.13;;;7.30;96.50;;;;;;5089596;28;20024;-66
2023/04/08 08:27:24;;;;;;;19.77;14.27;;;7.20;96.70;;;;;;5087600;28;20020;-66
2023/04/08 08:29:50;;;;;;;23.10;17.38;;;7.10;95.90;;;;;;5078526;28;20028;-66
2023/04/08 08:32:16;;;;;;;25.42;17.90;;;7.10;96.00;;;;;;5082368;28;20082;-66
2023/04/08 08:34:41;;;;;;;23.13;16.30;;;7.10;95.50;;;;;;5075077;28;20041;-65
2023/04/08 08:37:12;;;;;;;21.60;15.27;;;7.20;95.00;;;;;;5084262;28;20021;-65
2023/04/08 08:39:37;;;;;;;19.38;14.82;;;7.20;95.80;;;;;;5074850;28;20387;-66
2023/04/08 08:42:03;;;;;;;20.90;15.65;;;7.30;95.10;;;;;;5085161;28;20028;-66
2023/04/08 08:44:29;;;;;;;20.48;14.77;;;7.50;95.90;;;;;;5085368;28;20084;-66
2023/04/08 08:46:59;;;;;;;18.63;13.63;;;7.80;97.70;;;;;;5088593;28;20055;-66
2023/04/08 08:49:25;;;;;;;18.33;12.75;;;8.10;98.00;;;;;;5086469;28;20107;-66
2023/04/08 08:51:54;;;;;;;17.77;13.27;;;8.40;98.00;;;;;;5093623;28;20458;-65
2023/04/08 08:54:20;;;;;;;18.02;13.25;;;8.60;98.00;;;;;;5082209;28;20039;-65
2023/04/08 08:56:45;;;;;;;18.77;11.52;;;9.00;98.00;;;;;;5086189;28;20033;-69
2023/04/08 08:59:11;;;;;;;17.02;12.50;;;9.20;97.90;;;;;;5084893;28;20174;-66
2023/04/08 09:01:40;;;;;;;15.20;10.90;;;9.30;97.20;;;;;;5074353;28;20116;-66
2023/04/08 09:04:18;;;;;;;16.60;12.55;;;9.50;97.60;;;;;;5079548;28;20023;-65
2023/04/08 09:06:46;;;;;;;17.98;12.85;;;9.70;97.00;;;;;;5081543;28;20027;-66
2023/04/08 09:09:13;;;;;;;15.00;11.48;;;9.80;97.10;;;;;;5082319;28;20336;-65
2023/04/08 09:11:41;;;;;;;11.68;8.85;;;9.60;96.60;;;;;;5078700;28;20489;-66
2023/04/08 09:14:23;;;;;;;16.63;12.02;;;9.20;96.80;;;;;;5081583;28;20119;-66
2023/04/08 09:16:49;;;;;;;15.77;11.68;;;9.00;97.10;;;;;;5084851;28;20035;-65
2023/04/08 09:19:17;;;;;;;16.65;12.70;;;8.80;97.70;;;;;;5079171;28;20024;-65
2023/04/08 09:21:43;;;;;;;14.50;11.05;;;8.80;98.00;;;;;;5107974;28;20027;-64
2023/04/08 09:24:27;;;;;;;13.57;10.40;;;9.00;98.00;;;;;;5095987;28;20365;-65
2023/04/08 09:26:53;;;;;;;14.90;11.73;;;9.30;98.00;;;;;;5089072;28;20089;-67
2023/04/08 09:29:23;;;;;;;25.05;18.75;;;9.50;97.90;;;;;;5090676;28;21139;-67
2023/04/08 09:31:56;;;;;;;16.08;10.85;;;9.60;97.10;;;;;;5094317;28;20027;-67
2023/04/08 09:34:22;;;;;;;14.20;10.27;;;9.80;96.50;;;;;;5080061;28;20035;-66
2023/04/08 09:36:51;;;;;;;14.65;11.35;;;10.00;96.10;;;;;;5091414;28;20057;-66
2023/04/08 09:39:18;;;;;;;13.52;10.43;;;10.00;95.70;;;;;;5084670;28;20032;-66
2023/04/08 09:41:47;;;;;;;13.50;10.27;;;10.00;95.90;;;;;;5088889;28;20104;-66
2023/04/08 09:44:15;;;;;;;15.68;10.60;;;10.10;95.80;;;;;;5083007;28;20020;-66
2023/04/08 09:47:09;;;;;;;15.27;11.00;;;10.00;95.60;;;;;;5080421;28;20078;-67
2023/04/08 09:49:45;;;;;;;14.93;11.15;;;10.00;95.60;;;;;;5067490;28;20040;-66
2023/04/08 09:52:19;;;;;;;15.90;11.60;;;10.00;95.60;;;;;;5099825;28;20256;-66
2023/04/08 09:54:45;;;;;;;15.27;11.20;;;10.00;95.70;;;;;;5089773;28;20028;-66
2023/04/08 09:57:19;;;;;;;13.63;10.80;;;10.10;95.50;;;;;;5080898;28;20030;-65
2023/04/08 09:59:51;;;;;;;;;;;10.40;94.70;;;;;;5083792;28;20027;-66
2023/04/08 10:02:28;;;;;;;16.63;12.02;;;10.30;94.20;;;;;;5081664;28;20013;-67
2023/04/08 10:04:55;;;;;;;14.30;11.48;;;10.30;94.30;;;;;;5078207;28;20024;-66
2023/04/08 10:07:22;;;;;;;15.57;11.73;;;10.40;94.80;;;;;;5091566;28;20032;-66
2023/04/08 10:09:58;;;;;;;13.23;10.45;;;10.60;94.40;;;;;;5079723;28;20029;-65
2023/04/08 10:12:25;;;;;;;14.43;11.48;;;10.70;93.00;;;;;;5077112;28;20229;-66
2023/04/08 10:15:25;;;;;;;14.15;10.93;;;10.70;92.00;;;;;;5085999;28;20131;-65
2023/04/08 10:17:55;;;;;;;15.77;12.13;;;10.50;93.00;;;;;;5087350;28;20119;-65
2023/04/08 10:20:36;;;;;;;20.65;14.80;;;10.30;94.00;;;;;;5087211;28;20036;-65
2023/04/08 10:23:07;;;;;;;15.75;12.45;;;10.80;92.60;;;;;;5091484;28;20074;-66
2023/04/08 10:25:40;;;;;;;14.88;11.95;;;11.00;91.00;;;;;;5083270;28;20032;-66
2023/04/08 10:28:24;;;;;;;15.10;11.85;;;11.30;89.10;;;;;;5093387;28;20036;-67
2023/04/08 10:30:54;;;;;;;14.75;11.50;;;12.40;86.70;;;;;;5080197;28;20033;-66
2023/04/08 10:33:23;;;;;;;14.00;10.95;;;13.30;84.10;;;;;;5090335;28;20112;-67
2023/04/08 10:36:13;;;;;;;15.55;11.68;;;13.70;81.90;;;;;;5076540;28;20052;-66
2023/04/08 10:38:43;;;;;;;15.07;11.75;;;13.50;82.40;;;;;;5079947;28;20039;-66
2023/04/08 10:41:20;;;;;;;14.25;11.55;;;12.80;81.10;;;;;;5079347;28;20025;-66
2023/04/08 10:43:46;;;;;;;18.75;15.70;;;12.60;82.60;;;;;;5085906;28;20040;-66
2023/04/08 10:46:13;;;;;;;19.40;14.15;;;12.50;81.90;;;;;;5076768;28;20048;-66
2023/04/08 10:48:38;;;;;;;16.80;12.80;;;12.40;82.90;;;;;;5094288;28;20031;-66
2023/04/08 10:51:05;;;;;;;17.48;12.27;;;12.70;80.40;;;;;;5075648;28;20029;-66
2023/04/08 10:53:35;;;;;;;12.63;10.35;;;12.80;79.70;;;;;;5079988;28;20025;-66
2023/04/08 10:56:11;;;;;;;13.07;11.05;;;12.80;80.30;;;;;;5077366;28;20035;-66
2023/04/08 10:58:48;;;;;;;14.05;11.48;;;13.50;78.90;;;;;;5090927;28;20098;-66
2023/04/08 11:01:14;;;;;;;14.23;10.10;;;13.80;76.80;;;;;;5081764;28;20020;-66
2023/04/08 11:03:41;;;;;;;14.70;10.98;;;13.80;78.50;;;;;;5084711;28;20117;-66
2023/04/08 11:06:07;;;;;;;15.70;11.75;;;13.70;76.30;;;;;;5091109;28;20039;-66
2023/04/08 11:08:34;;;;;;;18.77;11.40;;;13.70;76.20;;;;;;5093966;28;20432;-66
2023/04/08 11:11:07;;;;;;;19.02;13.60;;;13.50;75.60;;;;;;5082028;28;20072;-66
2023/04/08 11:13:35;;;;;;;17.45;12.65;;;13.50;75.30;;;;;;5086381;28;20024;-66
2023/04/08 11:16:03;;;;;;;15.88;13.00;;;13.20;74.70;;;;;;5093441;28;20428;-66
2023/04/08 11:18:30;;;;;;;17.55;13.57;;;12.80;75.70;;;;;;5091537;28;20328;-67
2023/04/08 11:20:58;;;;;;;19.58;13.40;;;12.50;78.90;;;;;;5085376;28;20024;-66
2023/04/08 11:23:28;;;;;;;17.25;13.65;;;12.60;77.50;;;;;;5088654;28;20425;-67
2023/04/08 11:25:56;;;;;;;17.02;13.63;;;12.00;77.20;;;;;;5086309;28;20028;-67
2023/04/08 11:28:26;;;;;;;17.83;13.10;;;11.40;79.60;;;;;;5090163;28;20025;-66
2023/04/08 11:30:53;;;;;;;16.10;11.75;;;11.00;83.10;;;;;;5087588;28;20032;-65
2023/04/08 11:33:19;;;;;;;19.15;14.48;;;11.10;82.80;;;;;;5078532;28;20063;-66
2023/04/08 11:35:49;;;;;;;19.00;13.50;;;11.10;80.90;;;;;;5089738;28;20328;-66
2023/04/08 11:38:16;;;;;;;18.17;13.18;;;10.90;82.00;;;;;;5074099;28;20025;-66
2023/04/08 11:40:59;;;;;;;19.38;14.13;;;10.90;82.60;;;;;;5081286;28;20059;-66
2023/04/08 11:43:26;;;;;;;18.95;14.35;;;11.00;81.60;;;;;;5081547;28;20025;-66
2023/04/08 11:45:52;;;;;;;17.10;13.27;;;10.80;81.50;;;;;;5077154;28;20107;-66
2023/04/08 11:48:18;;;;;;;19.70;14.63;;;10.70;81.70;;;;;;5085330;28;20142;-66
2023/04/08 11:50:45;;;;;;;17.70;14.20;;;10.50;82.70;;;;;;5089953;28;20035;-66
2023/04/08 11:53:26;;;;;;;19.73;14.60;;;10.30;83.00;;;;;;5092053;28;20444;-66
2023/04/08 11:55:51;;;;;;;17.42;13.32;;;10.40;83.10;;;;;;5087993;28;20039;-66
2023/04/08 11:58:18;;;;;;;18.55;13.68;;;10.50;84.20;;;;;;5081944;28;20047;-65
2023/04/08 12:00:50;;;;;;;16.65;13.18;;;10.40;84.50;;;;;;5066762;28;20032;-66
2023/04/08 12:03:17;;;;;;;18.80;14.13;;;10.60;84.50;;;;;;5081408;28;20037;-66
2023/04/08 12:05:45;;;;;;;17.23;13.48;;;10.70;85.00;;;;;;5075933;28;20023;-65
2023/04/08 12:08:11;;;;;;;18.42;14.75;;;10.80;83.50;;;;;;5073967;28;20099;-66
2023/04/08 12:10:36;;;;;;;20.58;14.85;;;10.70;83.40;;;;;;5081038;28;20158;-64
2023/04/08 12:13:09;;;;;;;18.17;14.43;;;10.50;84.00;;;;;;5073469;28;20024;-65
2023/04/08 12:15:35;;;;;;;17.98;13.90;;;10.60;84.00;;;;;;5085715;28;20366;-65
2023/04/08 12:18:02;;;;;;;22.27;15.32;;;10.70;85.00;;;;;;5085443;28;20028;-65
2023/04/08 12:20:28;;;;;;;19.08;15.90;;;10.90;84.60;;;;;;5085344;28;20421;-65
2023/04/08 12:22:54;;;;;;;22.38;16.02;;;10.80;84.30;;;;;;5075998;28;20040;-67
2023/04/08 12:25:22;;;;;;;19.90;15.60;;;10.70;84.40;;;;;;5084325;28;20031;-67
2023/04/08 12:27:48;;;;;;;20.98;15.77;;;10.80;84.10;;;;;;5079649;28;20028;-67
2023/04/08 12:30:14;;;;;;;20.02;15.98;;;10.80;83.10;;;;;;5083411;28;20024;-67
2023/04/08 12:32:41;;;;;;;19.40;15.82;;;10.70;82.90;;;;;;5085660;28;20028;-67
2023/04/08 12:35:10;;;;;;;18.70;14.45;;;10.80;83.60;;;;;;5063376;28;20032;-67
2023/04/08 12:37:36;;;;;;;20.48;15.07;;;10.90;81.40;;;;;;5083323;28;20431;-65